sensor_id;sensor_type;location;lat;lon;timestamp;pressure;altitude;pressure_sealevel;temperature;humidity
50933;BME280;36921;49.006;9.292;2023-02-12T00:01:23;100775.88;;;4.55;100.00
50933;BME280;36921;49.006;9.292;2023-02-12T00:03:49;100779.53;;;4.54;100.00
50933;BME280;36921;49.006;9.292;2023-02-12T00:06:14;100777.53;;;4.45;100.00
50933;BME280;36921;49.006;9.292;2023-02-12T00:08:40;100774.50;;;4.50;100.00
50933;BME280;36921;49.006;9.292;2023-02-12T00:11:07;100791.34;;;4.52;100.00
50933;BME280;36921;49.006;9.292;2023-02-12T00:13:33;100784.63;;;4.46;100.00
50933;BME280;36921;49.006;9.292;2023-02-12T00:15:58;100774.22;;;4.42;100.00
50933;BME280;36921;49.006;9.292;2023-02-12T00:18:23;100778.91;;;4.51;100.00
50933;BME280;36921;49.006;9.292;2023-02-12T00:20:49;100766.69;;;4.47;100.00
50933;BME280;36921;49.006;9.292;2023-02-12T00:23:14;100777.47;;;4.58;100.00
50933;BME280;36921;49.006;9.292;2023-02-12T00:25:41;100774.94;;;4.68;100.00
50933;BME280;36921;49.006;9.292;2023-02-12T00:28:06;100797.66;;;4.86;100.00
50933;BME280;36921;49.006;9.292;2023-02-12T00:30:32;100779.47;;;4.78;100.00
50933;BME280;36921;49.006;9.292;2023-02-12T00:32:57;100769.09;;;4.74;100.00
50933;BME280;36921;49.006;9.292;2023-02-12T00:35:22;100781.91;;;4.81;100.00
50933;BME280;36921;49.006;9.292;2023-02-12T00:37:47;100782.06;;;4.80;100.00
50933;BME280;36921;49.006;9.292;2023-02-12T00:40:13;100771.19;;;4.81;100.00
50933;BME280;36921;49.006;9.292;2023-02-12T00:42:38;100773.03;;;4.92;100.00
50933;BME280;36921;49.006;9.292;2023-02-12T00:45:03;100779.50;;;4.90;100.00
50933;BME280;36921;49.006;9.292;2023-02-12T00:47:29;100783.66;;;4.82;100.00
50933;BME280;36921;49.006;9.292;2023-02-12T00:49:54;100788.78;;;4.86;100.00
50933;BME280;36921;49.006;9.292;2023-02-12T00:52:19;100784.25;;;4.86;100.00
50933;BME280;36921;49.006;9.292;2023-02-12T00:54:45;100782.50;;;4.74;100.00
50933;BME280;36921;49.006;9.292;2023-02-12T00:57:10;100788.13;;;4.82;100.00
50933;BME280;36921;49.006;9.292;2023-02-12T00:59:35;100783.06;;;4.90;100.00
50933;BME280;36921;49.006;9.292;2023-02-12T01:02:04;100774.72;;;4.82;100.00
50933;BME280;36921;49.006;9.292;2023-02-12T01:04:29;100786.06;;;4.74;100.00
50933;BME280;36921;49.006;9.292;2023-02-12T01:06:54;100769.47;;;4.69;100.00
50933;BME280;36921;49.006;9.292;2023-02-12T01:09:19;100784.47;;;4.72;100.00
50933;BME280;36921;49.006;9.292;2023-02-12T01:11:45;100801.06;;;4.77;100.00
50933;BME280;36921;49.006;9.292;2023-02-12T01:14:10;100797.88;;;4.72;100.00
50933;BME280;36921;49.006;9.292;2023-02-12T01:16:35;100767.31;;;4.50;100.00
50933;BME280;36921;49.006;9.292;2023-02-12T01:19:02;100792.47;;;4.60;100.00
50933;BME280;36921;49.006;9.292;2023-02-12T01:21:30;100785.25;;;4.61;100.00
50933;BME280;36921;49.006;9.292;2023-02-12T01:23:57;100777.66;;;4.44;100.00
50933;BME280;36921;49.006;9.292;2023-02-12T01:26:23;100798.00;;;4.46;100.00
50933;BME280;36921;49.006;9.292;2023-02-12T01:28:52;100794.59;;;4.44;100.00
50933;BME280;36921;49.006;9.292;2023-02-12T01:31:20;100793.31;;;4.61;100.00
50933;BME280;36921;49.006;9.292;2023-02-12T01:33:51;100785.19;;;4.74;100.00
50933;BME280;36921;49.006;9.292;2023-02-12T01:36:17;100783.38;;;4.74;100.00
50933;BME280;36921;49.006;9.292;2023-02-12T01:38:42;100783.25;;;4.76;100.00
50933;BME280;36921;49.006;9.292;2023-02-12T01:41:13;100789.97;;;4.81;100.00
50933;BME280;36921;49.006;9.292;2023-02-12T01:43:39;100775.94;;;4.78;100.00
50933;BME280;36921;49.006;9.292;2023-02-12T01:46:05;100787.91;;;4.85;100.00
50933;BME280;36921;49.006;9.292;2023-02-12T01:48:34;100780.09;;;4.82;100.00
50933;BME280;36921;49.006;9.292;2023-02-12T01:51:01;100774.47;;;4.74;100.00
50933;BME280;36921;49.006;9.292;2023-02-12T01:53:32;100776.19;;;4.75;100.00
50933;BME280;36921;49.006;9.292;2023-02-12T01:56:01;100774.34;;;4.64;100.00
50933;BME280;36921;49.006;9.292;2023-02-12T01:58:30;100770.56;;;4.67;100.00
50933;BME280;36921;49.006;9.292;2023-02-12T02:01:00;100783.56;;;4.60;100.00
50933;BME280;36921;49.006;9.292;2023-02-12T02:03:26;100773.16;;;4.44;100.00
50933;BME280;36921;49.006;9.292;2023-02-12T02:05:55;100771.44;;;4.43;100.00
50933;BME280;36921;49.006;9.292;2023-02-12T02:08:24;100765.59;;;4.38;100.00
50933;BME280;36921;49.006;9.292;2023-02-12T02:10:49;100773.84;;;4.35;100.00
50933;BME280;36921;49.006;9.292;2023-02-12T02:13:15;100777.25;;;4.37;100.00
50933;BME280;36921;49.006;9.292;2023-02-12T02:16:05;100770.81;;;4.39;100.00
50933;BME280;36921;49.006;9.292;2023-02-12T02:18:42;100762.09;;;4.49;100.00
50933;BME280;36921;49.006;9.292;2023-02-12T02:21:31;100763.34;;;4.56;100.00
50933;BME280;36921;49.006;9.292;2023-02-12T02:24:29;100760.97;;;4.87;100.00
50933;BME280;36921;49.006;9.292;2023-02-12T02:33:23;100757.53;;;4.73;100.00
50933;BME280;36921;49.006;9.292;2023-02-12T02:36:20;100766.16;;;4.66;100.00
50933;BME280;36921;49.006;9.292;2023-02-12T02:41:28;100753.63;;;4.42;100.00
50933;BME280;36921;49.006;9.292;2023-02-12T02:43:55;100758.06;;;4.43;100.00
50933;BME280;36921;49.006;9.292;2023-02-12T02:46:33;100760.50;;;4.46;100.00
50933;BME280;36921;49.006;9.292;2023-02-12T02:49:03;100751.44;;;4.36;100.00
50933;BME280;36921;49.006;9.292;2023-02-12T02:51:33;100764.53;;;4.52;100.00
50933;BME280;36921;49.006;9.292;2023-02-12T02:56:31;100768.03;;;4.41;100.00
50933;BME280;36921;49.006;9.292;2023-02-12T02:59:03;100753.59;;;4.31;100.00
50933;BME280;36921;49.006;9.292;2023-02-12T03:01:33;100758.63;;;4.35;100.00
50933;BME280;36921;49.006;9.292;2023-02-12T03:04:08;100768.69;;;4.32;100.00
50933;BME280;36921;49.006;9.292;2023-02-12T03:06:42;100774.53;;;4.26;100.00
50933;BME280;36921;49.006;9.292;2023-02-12T03:09:38;100768.94;;;4.29;100.00
50933;BME280;36921;49.006;9.292;2023-02-12T03:12:14;100758.91;;;4.20;100.00
50933;BME280;36921;49.006;9.292;2023-02-12T03:14:51;100777.72;;;4.31;100.00
50933;BME280;36921;49.006;9.292;2023-02-12T03:17:22;100766.75;;;4.34;100.00
50933;BME280;36921;49.006;9.292;2023-02-12T03:20:05;100758.34;;;4.27;100.00
50933;BME280;36921;49.006;9.292;2023-02-12T03:22:35;100763.91;;;4.48;100.00
50933;BME280;36921;49.006;9.292;2023-02-12T03:25:08;100775.25;;;4.52;100.00
50933;BME280;36921;49.006;9.292;2023-02-12T03:27:46;100780.69;;;4.39;100.00
50933;BME280;36921;49.006;9.292;2023-02-12T03:30:13;100769.69;;;4.31;100.00
50933;BME280;36921;49.006;9.292;2023-02-12T03:32:57;100764.31;;;4.31;100.00
50933;BME280;36921;49.006;9.292;2023-02-12T03:35:34;100779.50;;;4.43;100.00
50933;BME280;36921;49.006;9.292;2023-02-12T03:40:39;100777.53;;;4.45;100.00
50933;BME280;36921;49.006;9.292;2023-02-12T03:43:23;100775.59;;;4.47;100.00
50933;BME280;36921;49.006;9.292;2023-02-12T03:46:10;100767.78;;;4.44;100.00
50933;BME280;36921;49.006;9.292;2023-02-12T03:48:45;100766.53;;;4.37;100.00
50933;BME280;36921;49.006;9.292;2023-02-12T03:51:23;100769.44;;;4.34;100.00
50933;BME280;36921;49.006;9.292;2023-02-12T03:53:49;100778.34;;;4.34;100.00
50933;BME280;36921;49.006;9.292;2023-02-12T03:56:39;100776.22;;;4.27;100.00
50933;BME280;36921;49.006;9.292;2023-02-12T03:59:07;100779.88;;;4.26;100.00
50933;BME280;36921;49.006;9.292;2023-02-12T04:01:33;100783.31;;;4.28;100.00
50933;BME280;36921;49.006;9.292;2023-02-12T04:04:02;100788.38;;;4.44;100.00
50933;BME280;36921;49.006;9.292;2023-02-12T04:06:28;100787.16;;;4.48;100.00
50933;BME280;36921;49.006;9.292;2023-02-12T04:08:56;100773.63;;;4.38;100.00
50933;BME280;36921;49.006;9.292;2023-02-12T04:11:39;100800.69;;;4.46;100.00
50933;BME280;36921;49.006;9.292;2023-02-12T04:14:21;100787.91;;;4.50;100.00
50933;BME280;36921;49.006;9.292;2023-02-12T04:17:08;100788.88;;;4.49;100.00
50933;BME280;36921;49.006;9.292;2023-02-12T04:20:02;100796.28;;;4.45;100.00
50933;BME280;36921;49.006;9.292;2023-02-12T04:22:38;100789.22;;;4.44;100.00
50933;BME280;36921;49.006;9.292;2023-02-12T04:28:16;100784.09;;;4.41;100.00
50933;BME280;36921;49.006;9.292;2023-02-12T04:33:24;100786.28;;;4.36;100.00
50933;BME280;36921;49.006;9.292;2023-02-12T04:35:55;100803.09;;;4.38;100.00
50933;BME280;36921;49.006;9.292;2023-02-12T04:38:49;100806.97;;;4.34;100.00
50933;BME280;36921;49.006;9.292;2023-02-12T04:41:16;100795.19;;;4.48;100.00
50933;BME280;36921;49.006;9.292;2023-02-12T04:43:41;100795.56;;;4.43;100.00
50933;BME280;36921;49.006;9.292;2023-02-12T04:46:07;100790.41;;;4.40;100.00
50933;BME280;36921;49.006;9.292;2023-02-12T04:48:33;100793.31;;;4.37;100.00
50933;BME280;36921;49.006;9.292;2023-02-12T04:50:59;100808.09;;;4.43;100.00
50933;BME280;36921;49.006;9.292;2023-02-12T04:53:24;100798.44;;;4.40;100.00
50933;BME280;36921;49.006;9.292;2023-02-12T04:55:50;100803.72;;;4.42;100.00
50933;BME280;36921;49.006;9.292;2023-02-12T04:58:16;100814.44;;;4.42;100.00
50933;BME280;36921;49.006;9.292;2023-02-12T05:00:41;100797.66;;;4.27;100.00
50933;BME280;36921;49.006;9.292;2023-02-12T05:03:06;100801.31;;;4.26;100.00
50933;BME280;36921;49.006;9.292;2023-02-12T05:05:32;100804.97;;;4.25;100.00
50933;BME280;36921;49.006;9.292;2023-02-12T05:07:57;100785.72;;;4.20;100.00
50933;BME280;36921;49.006;9.292;2023-02-12T05:10:23;100786.66;;;4.18;100.00
50933;BME280;36921;49.006;9.292;2023-02-12T05:12:53;100797.22;;;4.33;100.00
50933;BME280;36921;49.006;9.292;2023-02-12T05:15:20;100794.81;;;4.41;100.00
50933;BME280;36921;49.006;9.292;2023-02-12T05:17:45;100798.00;;;4.46;100.00
50933;BME280;36921;49.006;9.292;2023-02-12T05:20:11;100784.09;;;4.41;100.00
50933;BME280;36921;49.006;9.292;2023-02-12T05:22:37;100790.66;;;4.37;100.00
50933;BME280;36921;49.006;9.292;2023-02-12T05:25:03;100786.28;;;4.36;100.00
50933;BME280;36921;49.006;9.292;2023-02-12T05:27:29;100782.22;;;4.30;100.00
50933;BME280;36921;49.006;9.292;2023-02-12T05:29:54;100801.31;;;4.50;100.00
50933;BME280;36921;49.006;9.292;2023-02-12T05:32:24;100793.00;;;4.42;100.00
50933;BME280;36921;49.006;9.292;2023-02-12T05:34:52;100698.03;;;3.73;100.00
50933;BME280;36921;49.006;9.292;2023-02-12T05:37:17;100796.56;;;4.29;100.00
50933;BME280;36921;49.006;9.292;2023-02-12T05:40:17;100819.09;;;4.27;100.00
50933;BME280;36921;49.006;9.292;2023-02-12T05:42:42;100743.50;;;3.86;100.00
50933;BME280;36921;49.006;9.292;2023-02-12T05:45:07;100738.34;;;3.96;100.00
50933;BME280;36921;49.006;9.292;2023-02-12T05:47:33;100788.78;;;4.26;100.00
50933;BME280;36921;49.006;9.292;2023-02-12T05:49:58;100806.06;;;4.46;100.00
50933;BME280;36921;49.006;9.292;2023-02-12T05:52:23;100772.81;;;4.25;100.00
50933;BME280;36921;49.006;9.292;2023-02-12T05:54:49;100806.16;;;4.45;100.00
50933;BME280;36921;49.006;9.292;2023-02-12T05:57:14;100805.06;;;4.47;100.00
50933;BME280;36921;49.006;9.292;2023-02-12T05:59:39;100793.09;;;4.40;100.00
50933;BME280;36921;49.006;9.292;2023-02-12T06:02:05;100774.53;;;4.26;100.00
50933;BME280;36921;49.006;9.292;2023-02-12T06:04:30;100789.28;;;4.07;100.00
50933;BME280;36921;49.006;9.292;2023-02-12T06:06:56;100801.78;;;4.20;100.00
50933;BME280;36921;49.006;9.292;2023-02-12T06:09:22;100812.03;;;4.26;100.00
50933;BME280;36921;49.006;9.292;2023-02-12T06:11:48;100787.25;;;4.35;100.00
50933;BME280;36921;49.006;9.292;2023-02-12T06:14:15;100796.56;;;4.29;100.00
50933;BME280;36921;49.006;9.292;2023-02-12T06:16:43;100795.25;;;4.11;100.00
50933;BME280;36921;49.006;9.292;2023-02-12T06:19:08;100796.56;;;4.05;100.00
50933;BME280;36921;49.006;9.292;2023-02-12T06:21:34;100803.66;;;4.06;100.00
50933;BME280;36921;49.006;9.292;2023-02-12T06:23:59;100808.19;;;3.93;100.00
50933;BME280;36921;49.006;9.292;2023-02-12T06:26:25;100822.75;;;3.89;100.00
50933;BME280;36921;49.006;9.292;2023-02-12T06:29:00;100799.53;;;3.77;100.00
50933;BME280;36921;49.006;9.292;2023-02-12T06:31:31;100794.63;;;3.70;100.00
50933;BME280;36921;49.006;9.292;2023-02-12T06:34:00;100817.09;;;3.81;100.00
50933;BME280;36921;49.006;9.292;2023-02-12T06:36:26;100825.25;;;3.79;100.00
50933;BME280;36921;49.006;9.292;2023-02-12T06:38:51;100814.22;;;3.71;100.00
50933;BME280;36921;49.006;9.292;2023-02-12T06:41:17;100826.41;;;3.88;100.00
50933;BME280;36921;49.006;9.292;2023-02-12T06:43:43;100827.44;;;3.98;100.00
50933;BME280;36921;49.006;9.292;2023-02-12T06:46:08;100818.75;;;4.07;100.00
50933;BME280;36921;49.006;9.292;2023-02-12T06:48:34;100827.94;;;4.16;100.00
50933;BME280;36921;49.006;9.292;2023-02-12T06:51:04;100825.19;;;4.29;100.00
50933;BME280;36921;49.006;9.292;2023-02-12T06:53:29;100837.97;;;4.25;100.00
50933;BME280;36921;49.006;9.292;2023-02-12T06:55:55;100831.78;;;4.25;100.00
50933;BME280;36921;49.006;9.292;2023-02-12T06:58:20;100838.16;;;4.35;100.00
50933;BME280;36921;49.006;9.292;2023-02-12T07:00:45;100830.13;;;4.35;100.00
50933;BME280;36921;49.006;9.292;2023-02-12T07:03:10;100818.19;;;4.39;100.00
50933;BME280;36921;49.006;9.292;2023-02-12T07:05:38;100818.66;;;4.33;100.00
50933;BME280;36921;49.006;9.292;2023-02-12T07:08:03;100832.72;;;4.48;100.00
50933;BME280;36921;49.006;9.292;2023-02-12T07:10:29;100839.00;;;4.59;100.00
50933;BME280;36921;49.006;9.292;2023-02-12T07:12:54;100832.16;;;4.55;100.00
50933;BME280;36921;49.006;9.292;2023-02-12T07:15:27;100834.63;;;4.58;100.00
50933;BME280;36921;49.006;9.292;2023-02-12T07:17:53;100829.59;;;4.54;100.00
50933;BME280;36921;49.006;9.292;2023-02-12T07:20:18;100844.25;;;4.61;100.00
50933;BME280;36921;49.006;9.292;2023-02-12T07:22:44;100829.41;;;4.68;100.00
50933;BME280;36921;49.006;9.292;2023-02-12T07:25:09;100826.16;;;4.76;100.00
50933;BME280;36921;49.006;9.292;2023-02-12T07:27:37;100832.44;;;4.88;100.00
50933;BME280;36921;49.006;9.292;2023-02-12T07:30:04;100830.59;;;4.88;100.00
50933;BME280;36921;49.006;9.292;2023-02-12T07:32:33;100819.69;;;4.78;100.00
50933;BME280;36921;49.006;9.292;2023-02-12T07:34:59;100838.88;;;4.85;100.00
50933;BME280;36921;49.006;9.292;2023-02-12T07:37:24;100841.16;;;4.78;100.00
50933;BME280;36921;49.006;9.292;2023-02-12T07:39:50;100816.81;;;4.57;100.00
50933;BME280;36921;49.006;9.292;2023-02-12T07:42:16;100835.44;;;4.83;100.00
50933;BME280;36921;49.006;9.292;2023-02-12T07:44:41;100841.06;;;4.80;100.00
50933;BME280;36921;49.006;9.292;2023-02-12T07:47:07;100823.81;;;4.71;100.00
50933;BME280;36921;49.006;9.292;2023-02-12T07:49:32;100840.41;;;4.76;100.00
50933;BME280;36921;49.006;9.292;2023-02-12T07:52:12;100841.78;;;4.82;100.00
50933;BME280;36921;49.006;9.292;2023-02-12T07:54:37;100847.94;;;4.95;100.00
50933;BME280;36921;49.006;9.292;2023-02-12T07:57:02;100836.25;;;5.08;100.00
50933;BME280;36921;49.006;9.292;2023-02-12T07:59:28;100835.78;;;5.14;100.00
50933;BME280;36921;49.006;9.292;2023-02-12T08:01:53;100837.75;;;5.23;100.00
50933;BME280;36921;49.006;9.292;2023-02-12T08:04:23;100856.69;;;5.33;100.00
50933;BME280;36921;49.006;9.292;2023-02-12T08:06:51;100842.66;;;5.40;100.00
50933;BME280;36921;49.006;9.292;2023-02-12T08:09:20;100831.69;;;5.55;100.00
50933;BME280;36921;49.006;9.292;2023-02-12T08:11:46;100835.50;;;5.75;100.00
50933;BME280;36921;49.006;9.292;2023-02-12T08:14:14;100823.28;;;5.70;100.00
50933;BME280;36921;49.006;9.292;2023-02-12T08:16:41;100848.09;;;6.08;100.00
50933;BME280;36921;49.006;9.292;2023-02-12T08:19:07;100846.88;;;6.01;100.00
50933;BME280;36921;49.006;9.292;2023-02-12T08:21:32;100828.28;;;6.09;100.00
50933;BME280;36921;49.006;9.292;2023-02-12T08:27:10;100825.22;;;6.57;100.00
50933;BME280;36921;49.006;9.292;2023-02-12T08:29:35;100832.53;;;6.66;100.00
50933;BME280;36921;49.006;9.292;2023-02-12T08:32:02;100841.56;;;6.65;100.00
50933;BME280;36921;49.006;9.292;2023-02-12T08:34:30;100837.06;;;6.66;100.00
50933;BME280;36921;49.006;9.292;2023-02-12T08:36:56;100834.59;;;6.74;100.00
50933;BME280;36921;49.006;9.292;2023-02-12T08:39:23;100842.78;;;6.72;100.00
50933;BME280;36921;49.006;9.292;2023-02-12T08:41:49;100851.25;;;6.89;100.00
50933;BME280;36921;49.006;9.292;2023-02-12T08:44:16;100849.75;;;6.96;100.00
50933;BME280;36921;49.006;9.292;2023-02-12T08:46:44;100833.75;;;6.94;100.00
50933;BME280;36921;49.006;9.292;2023-02-12T08:49:14;100846.03;;;7.08;100.00
50933;BME280;36921;49.006;9.292;2023-02-12T08:51:45;100855.22;;;7.27;100.00
50933;BME280;36921;49.006;9.292;2023-02-12T08:54:15;100851.53;;;7.28;100.00
50933;BME280;36921;49.006;9.292;2023-02-12T08:56:41;100855.22;;;7.27;100.00
50933;BME280;36921;49.006;9.292;2023-02-12T08:59:10;100831.28;;;7.23;100.00
50933;BME280;36921;49.006;9.292;2023-02-12T09:01:37;100833.53;;;7.28;100.00
50933;BME280;36921;49.006;9.292;2023-02-12T09:04:04;100843.13;;;7.73;100.00
50933;BME280;36921;49.006;9.292;2023-02-12T09:06:31;100852.13;;;7.83;100.00
50933;BME280;36921;49.006;9.292;2023-02-12T09:08:57;100837.13;;;7.59;100.00
50933;BME280;36921;49.006;9.292;2023-02-12T09:11:25;100848.28;;;7.76;100.00
50933;BME280;36921;49.006;9.292;2023-02-12T09:13:55;100853.00;;;7.93;100.00
50933;BME280;36921;49.006;9.292;2023-02-12T09:16:21;100839.53;;;7.93;100.00
50933;BME280;36921;49.006;9.292;2023-02-12T09:18:46;100826.22;;;7.92;100.00
50933;BME280;36921;49.006;9.292;2023-02-12T09:21:13;100844.28;;;8.41;100.00
50933;BME280;36921;49.006;9.292;2023-02-12T09:23:41;100814.66;;;8.30;100.00
50933;BME280;36921;49.006;9.292;2023-02-12T09:26:09;100832.91;;;8.47;100.00
50933;BME280;36921;49.006;9.292;2023-02-12T09:28:35;100843.16;;;8.63;100.00
50933;BME280;36921;49.006;9.292;2023-02-12T09:31:05;100844.28;;;8.99;100.00
50933;BME280;36921;49.006;9.292;2023-02-12T09:33:30;100829.22;;;9.07;100.00
50933;BME280;36921;49.006;9.292;2023-02-12T09:36:00;100843.13;;;9.21;100.00
50933;BME280;36921;49.006;9.292;2023-02-12T09:38:26;100838.25;;;9.35;100.00
50933;BME280;36921;49.006;9.292;2023-02-12T09:43:32;100834.16;;;9.78;100.00
50933;BME280;36921;49.006;9.292;2023-02-12T09:51:10;100826.31;;;10.40;100.00
50933;BME280;36921;49.006;9.292;2023-02-12T09:53:39;100835.84;;;10.44;100.00
50933;BME280;36921;49.006;9.292;2023-02-12T09:56:17;100837.16;;;10.58;100.00
50933;BME280;36921;49.006;9.292;2023-02-12T10:01:16;100832.47;;;10.60;100.00
50933;BME280;36921;49.006;9.292;2023-02-12T10:03:43;100821.63;;;10.78;100.00
50933;BME280;36921;49.006;9.292;2023-02-12T10:06:21;100819.91;;;11.12;100.00
50933;BME280;36921;49.006;9.292;2023-02-12T10:11:41;100835.00;;;10.79;100.00
50933;BME280;36921;49.006;9.292;2023-02-12T10:22:37;100834.94;;;10.89;100.00
50933;BME280;36921;49.006;9.292;2023-02-12T10:25:08;100833.00;;;10.81;100.00
50933;BME280;36921;49.006;9.292;2023-02-12T10:27:39;100827.88;;;10.96;100.00
50933;BME280;36921;49.006;9.292;2023-02-12T10:30:19;100831.31;;;10.98;100.00
50933;BME280;36921;49.006;9.292;2023-02-12T10:32:47;100839.09;;;10.65;100.00
50933;BME280;36921;49.006;9.292;2023-02-12T10:35:15;100839.50;;;10.70;100.00
50933;BME280;36921;49.006;9.292;2023-02-12T10:37:48;100836.94;;;10.87;100.00
50933;BME280;36921;49.006;9.292;2023-02-12T10:40:20;100835.41;;;10.48;100.00
50933;BME280;36921;49.006;9.292;2023-02-12T10:42:48;100827.97;;;10.23;100.00
50933;BME280;36921;49.006;9.292;2023-02-12T10:45:17;100823.09;;;10.26;100.00
50933;BME280;36921;49.006;9.292;2023-02-12T10:47:44;100818.69;;;10.25;100.00
50933;BME280;36921;49.006;9.292;2023-02-12T10:50:25;100816.22;;;10.14;100.00
50933;BME280;36921;49.006;9.292;2023-02-12T10:52:55;100822.69;;;10.21;100.00
50933;BME280;36921;49.006;9.292;2023-02-12T10:57:49;100809.81;;;10.43;100.00
50933;BME280;36921;49.006;9.292;2023-02-12T11:00:36;100814.75;;;10.65;100.00
50933;BME280;36921;49.006;9.292;2023-02-12T11:03:22;100802.38;;;10.63;100.00
50933;BME280;36921;49.006;9.292;2023-02-12T11:05:47;100803.59;;;10.50;100.00
50933;BME280;36921;49.006;9.292;2023-02-12T11:08:32;100804.09;;;10.64;100.00
50933;BME280;36921;49.006;9.292;2023-02-12T11:11:04;100804.66;;;11.11;100.00
50933;BME280;36921;49.006;9.292;2023-02-12T11:13:30;100794.41;;;11.23;100.00
50933;BME280;36921;49.006;9.292;2023-02-12T11:15:56;100799.72;;;11.07;100.00
50933;BME280;36921;49.006;9.292;2023-02-12T11:18:29;100785.69;;;11.11;100.00
50933;BME280;36921;49.006;9.292;2023-02-12T11:21:05;100798.22;;;11.12;100.00
50933;BME280;36921;49.006;9.292;2023-02-12T11:23:37;100786.56;;;10.94;100.00
50933;BME280;36921;49.006;9.292;2023-02-12T11:28:52;100790.84;;;11.23;100.00
50933;BME280;36921;49.006;9.292;2023-02-12T11:31:25;100797.28;;;10.78;100.00
50933;BME280;36921;49.006;9.292;2023-02-12T11:36:29;100790.31;;;10.57;100.00
50933;BME280;36921;49.006;9.292;2023-02-12T11:38:57;100787.41;;;10.94;100.00
50933;BME280;36921;49.006;9.292;2023-02-12T11:41:35;100765.41;;;12.18;100.00
50933;BME280;36921;49.006;9.292;2023-02-12T11:44:16;100779.91;;;12.68;100.00
50933;BME280;36921;49.006;9.292;2023-02-12T11:46:49;100778.53;;;11.89;100.00
50933;BME280;36921;49.006;9.292;2023-02-12T11:49:27;100785.25;;;11.76;100.00
50933;BME280;36921;49.006;9.292;2023-02-12T11:51:54;100777.06;;;11.42;100.00
50933;BME280;36921;49.006;9.292;2023-02-12T11:54:27;100774.97;;;10.84;100.00
50933;BME280;36921;49.006;9.292;2023-02-12T11:56:53;100780.97;;;10.24;100.00
50933;BME280;36921;49.006;9.292;2023-02-12T11:59:28;100788.91;;;10.35;100.00
50933;BME280;36921;49.006;9.292;2023-02-12T12:01:55;100778.69;;;10.83;100.00
50933;BME280;36921;49.006;9.292;2023-02-12T12:04:24;100769.84;;;11.51;100.00
50933;BME280;36921;49.006;9.292;2023-02-12T12:06:54;100776.75;;;12.14;100.00
50933;BME280;36921;49.006;9.292;2023-02-12T12:09:41;100773.84;;;11.73;100.00
50933;BME280;36921;49.006;9.292;2023-02-12T12:15:04;100773.75;;;10.42;100.00
50933;BME280;36921;49.006;9.292;2023-02-12T12:17:59;100766.72;;;10.31;100.00
50933;BME280;36921;49.006;9.292;2023-02-12T12:20:53;100772.13;;;10.31;100.00
50933;BME280;36921;49.006;9.292;2023-02-12T12:23:33;100765.81;;;10.59;100.00
50933;BME280;36921;49.006;9.292;2023-02-12T12:26:09;100772.09;;;11.03;100.00
50933;BME280;36921;49.006;9.292;2023-02-12T12:28:45;100766.13;;;13.91;100.00
50933;BME280;36921;49.006;9.292;2023-02-12T12:33:48;100754.00;;;16.20;80.52
50933;BME280;36921;49.006;9.292;2023-02-12T12:45:18;100750.56;;;18.44;63.36
50933;BME280;36921;49.006;9.292;2023-02-12T12:53:28;100728.75;;;17.61;63.79
50933;BME280;36921;49.006;9.292;2023-02-12T12:56:27;100741.19;;;17.63;64.34
50933;BME280;36921;49.006;9.292;2023-02-12T13:05:38;100725.06;;;17.47;64.70
50933;BME280;36921;49.006;9.292;2023-02-12T13:08:32;100720.69;;;17.94;62.09
50933;BME280;36921;49.006;9.292;2023-02-12T13:11:35;100715.63;;;19.12;59.09
50933;BME280;36921;49.006;9.292;2023-02-12T13:14:36;100706.56;;;19.18;57.39
50933;BME280;36921;49.006;9.292;2023-02-12T13:17:16;100705.84;;;19.56;56.02
50933;BME280;36921;49.006;9.292;2023-02-12T13:25:27;100699.97;;;19.39;57.08
50933;BME280;36921;49.006;9.292;2023-02-12T13:27:56;100682.31;;;19.09;55.83
50933;BME280;36921;49.006;9.292;2023-02-12T13:30:28;100697.06;;;18.81;57.39
50933;BME280;36921;49.006;9.292;2023-02-12T13:33:14;100686.53;;;18.85;57.17
50933;BME280;36921;49.006;9.292;2023-02-12T13:35:45;100698.97;;;18.60;57.42
50933;BME280;36921;49.006;9.292;2023-02-12T13:38:19;100691.56;;;18.61;58.58
50933;BME280;36921;49.006;9.292;2023-02-12T13:40:45;100680.66;;;18.94;55.80
50933;BME280;36921;49.006;9.292;2023-02-12T13:43:24;100684.78;;;19.37;55.79
50933;BME280;36921;49.006;9.292;2023-02-12T13:46:03;100672.81;;;18.98;56.32
50933;BME280;36921;49.006;9.292;2023-02-12T13:53:52;100687.56;;;18.50;57.34
50933;BME280;36921;49.006;9.292;2023-02-12T14:02:01;100678.50;;;18.63;56.87
50933;BME280;36921;49.006;9.292;2023-02-12T14:07:06;100667.03;;;18.06;58.76
50933;BME280;36921;49.006;9.292;2023-02-12T14:09:36;100672.41;;;18.81;57.43
50933;BME280;36921;49.006;9.292;2023-02-12T14:12:09;100662.75;;;19.57;56.25
50933;BME280;36921;49.006;9.292;2023-02-12T14:14:40;100668.69;;;18.07;56.80
50933;BME280;36921;49.006;9.292;2023-02-12T14:20:23;100652.44;;;17.44;60.46
50933;BME280;36921;49.006;9.292;2023-02-12T14:30:24;100655.81;;;16.34;62.94
50933;BME280;36921;49.006;9.292;2023-02-12T14:37:53;100647.66;;;16.62;64.94
50933;BME280;36921;49.006;9.292;2023-02-12T14:43:32;100650.81;;;15.94;68.47
50933;BME280;36921;49.006;9.292;2023-02-12T14:48:58;100640.44;;;14.79;80.12
50933;BME280;36921;49.006;9.292;2023-02-12T14:51:43;100638.41;;;14.58;87.79
50933;BME280;36921;49.006;9.292;2023-02-12T14:54:45;100639.09;;;13.91;98.74
50933;BME280;36921;49.006;9.292;2023-02-12T14:57:23;100650.88;;;12.88;100.00
50933;BME280;36921;49.006;9.292;2023-02-12T14:59:51;100638.03;;;12.00;100.00
50933;BME280;36921;49.006;9.292;2023-02-12T15:02:24;100651.34;;;11.77;100.00
50933;BME280;36921;49.006;9.292;2023-02-12T15:04:52;100648.59;;;11.61;100.00